Time;durP1;ratioP1;P1;durP2;ratioP2;P2;SDS_P1;SDS_P2;PMS_P1;PMS_P2;Temp;Humidity;BMP_temperature;BMP_pressure;BME280_temperature;BME280_humidity;BME280_pressure;Samples;Min_cycle;Max_cycle;Signal;HPM_P1;HPM_P2
2021/12/08 00:01:57;;;;;;;;;;;4.70;82.80;;;;;;5062329;28;20016;-82
2021/12/08 00:04:22;;;;;;;;;;;4.60;83.20;;;;;;5074113;28;19920;-84
2021/12/08 00:06:48;;;;;;;;;;;4.70;83.30;;;;;;5072460;28;19931;-85
2021/12/08 00:09:26;;;;;;;;;;;4.70;83.70;;;;;;5056644;28;19924;-84
2021/12/08 00:14:35;;;;;;;;;;;4.60;83.70;;;;;;5038347;28;19916;-84
2021/12/08 00:17:01;;;;;;;;;;;4.60;83.10;;;;;;5055795;28;20015;-83
2021/12/08 00:19:28;;;;;;;;;;;4.70;83.70;;;;;;5055960;28;20369;-84
2021/12/08 00:21:53;;;;;;;;;;;4.80;83.00;;;;;;5072833;28;19913;-85
2021/12/08 00:24:19;;;;;;;;;;;4.80;82.90;;;;;;5056671;28;20011;-84
2021/12/08 00:26:44;;;;;;;;;;;4.90;82.10;;;;;;5056775;28;19913;-84
2021/12/08 00:29:10;;;;;;;;;;;4.90;82.00;;;;;;5057463;28;19916;-82
2021/12/08 00:31:35;;;;;;;;;;;4.90;81.90;;;;;;5045056;28;19913;-83
2021/12/08 00:34:01;;;;;;;;;;;4.90;81.40;;;;;;5048565;28;20166;-84
2021/12/08 00:36:32;;;;;;;;;;;4.90;81.70;;;;;;5055230;28;19920;-82
2021/12/08 00:38:57;;;;;;;;;;;5.10;81.90;;;;;;5051642;28;19958;-83
2021/12/08 00:41:23;;;;;;;;;;;5.20;80.80;;;;;;5054451;28;19917;-83
2021/12/08 00:43:48;;;;;;;;;;;5.20;80.50;;;;;;5057061;28;19931;-84
2021/12/08 00:46:14;;;;;;;;;;;5.30;80.90;;;;;;5057191;28;20296;-84
2021/12/08 00:48:41;;;;;;;;;;;5.20;80.30;;;;;;5047076;28;19913;-84
2021/12/08 00:51:07;;;;;;;;;;;5.20;80.80;;;;;;5055235;28;19916;-84
2021/12/08 00:53:32;;;;;;;;;;;5.30;80.10;;;;;;5054856;28;19913;-87
2021/12/08 00:55:58;;;;;;;;;;;5.50;79.80;;;;;;5057067;28;19955;-84
2021/12/08 00:58:24;;;;;;;;;;;5.30;80.00;;;;;;5054803;28;20846;-84
2021/12/08 01:00:50;;;;;;;;;;;5.30;80.90;;;;;;5057983;28;20362;-84
2021/12/08 01:03:16;;;;;;;;;;;5.40;81.00;;;;;;5052638;28;19919;-84
2021/12/08 01:05:52;;;;;;;;;;;5.40;81.00;;;;;;5051472;28;19909;-84
2021/12/08 01:08:18;;;;;;;;;;;5.30;81.00;;;;;;5046202;28;19917;-85
2021/12/08 01:10:44;;;;;;;;;;;5.40;81.30;;;;;;5047754;28;20295;-83
2021/12/08 01:13:11;;;;;;;;;;;5.40;80.80;;;;;;5052926;28;19987;-84
2021/12/08 01:15:39;;;;;;;;;;;5.30;81.30;;;;;;5052543;28;20003;-83
2021/12/08 01:18:05;;;;;;;;;;;5.30;81.60;;;;;;5053382;28;19917;-85
2021/12/08 01:20:30;;;;;;;;;;;5.40;81.70;;;;;;5048412;28;19913;-85
2021/12/08 01:22:56;;;;;;;;;;;5.30;82.00;;;;;;5050806;28;19916;-83
2021/12/08 01:25:21;;;;;;;;;;;5.30;82.10;;;;;;5053178;28;20280;-84
2021/12/08 01:27:47;;;;;;;;;;;5.20;82.80;;;;;;5053923;28;19919;-82
2021/12/08 01:30:12;;;;;;;;;;;5.20;83.10;;;;;;5055032;28;19909;-82
2021/12/08 01:32:38;;;;;;;;;;;5.20;83.10;;;;;;5054183;28;19921;-82
2021/12/08 01:35:04;;;;;;;;;;;5.10;83.00;;;;;;5053904;28;19966;-82
2021/12/08 01:37:30;;;;;;;;;;;5.20;83.00;;;;;;5054887;28;19983;-81
2021/12/08 01:39:55;;;;;;;;;;;5.10;83.10;;;;;;5053091;28;19940;-81
2021/12/08 01:43:04;;;;;;;;;;;5.10;83.90;;;;;;5054727;28;19913;-82
2021/12/08 01:48:00;;;;;;;;;;;5.20;83.70;;;;;;5037832;28;20004;-84
2021/12/08 01:50:26;;;;;;;;;;;5.10;84.00;;;;;;5048637;28;19920;-84
2021/12/08 01:52:51;;;;;;;;;;;5.10;84.30;;;;;;5054400;28;20422;-85
2021/12/08 01:55:17;;;;;;;;;;;5.00;83.90;;;;;;5055159;28;20364;-85
2021/12/08 01:57:43;;;;;;;;;;;5.10;83.90;;;;;;5054888;28;19956;-84
2021/12/08 02:00:14;;;;;;;;;;;5.00;83.70;;;;;;5054967;28;19921;-85
2021/12/08 02:02:39;;;;;;;;;;;5.00;83.50;;;;;;5054634;28;19913;-84
2021/12/08 02:05:05;;;;;;;;;;;5.00;83.50;;;;;;5054897;28;20054;-84
2021/12/08 02:07:31;;;;;;;;;;;5.00;84.10;;;;;;5055812;28;19923;-85
2021/12/08 02:09:56;;;;;;;;;;;5.10;84.00;;;;;;5047546;28;19920;-86
2021/12/08 02:12:22;;;;;;;;;;;5.10;84.00;;;;;;5046093;28;19912;-85
2021/12/08 02:14:48;;;;;;;;;;;5.20;82.90;;;;;;5058798;28;19925;-84
2021/12/08 02:17:13;;;;;;;;;;;5.20;83.30;;;;;;5054608;28;20297;-86
2021/12/08 02:19:39;;;;;;;;;;;5.30;82.30;;;;;;5056823;28;19997;-86
2021/12/08 02:22:05;;;;;;;;;;;5.20;82.60;;;;;;5056609;28;19923;-86
2021/12/08 02:24:31;;;;;;;;;;;5.20;82.90;;;;;;5058610;28;19912;-87
2021/12/08 02:26:57;;;;;;;;;;;5.20;83.10;;;;;;5059517;28;19948;-87
2021/12/08 02:29:53;;;;;;;;;;;5.30;83.00;;;;;;5057556;28;19917;-84
2021/12/08 02:48:27;;;;;;;;;;;5.40;83.40;;;;;;5068185;28;19915;-86
2021/12/08 02:50:53;;;;;;;;;;;5.60;83.00;;;;;;5054536;28;19967;-86
2021/12/08 02:53:18;;;;;;;;;;;5.70;82.30;;;;;;5049370;28;19909;-87
2021/12/08 02:55:44;;;;;;;;;;;5.60;82.70;;;;;;5053072;28;19920;-86
2021/12/08 02:58:10;;;;;;;;;;;5.70;82.50;;;;;;5045120;28;19936;-86
2021/12/08 03:00:38;;;;;;;;;;;5.60;82.50;;;;;;5041526;28;19913;-85
2021/12/08 03:03:04;;;;;;;;;;;5.70;82.60;;;;;;5052622;28;19915;-86
2021/12/08 03:05:30;;;;;;;;;;;5.70;82.40;;;;;;5055182;28;20478;-85
2021/12/08 03:07:55;;;;;;;;;;;5.70;82.50;;;;;;5053952;28;19916;-86
2021/12/08 03:10:23;;;;;;;;;;;5.70;82.60;;;;;;5053703;28;19913;-85
2021/12/08 03:12:48;;;;;;;;;;;5.70;82.60;;;;;;5054793;28;20452;-85
2021/12/08 03:15:14;;;;;;;;;;;5.90;82.10;;;;;;5054166;28;19964;-86
2021/12/08 03:17:40;;;;;;;;;;;5.90;81.90;;;;;;5054436;28;20047;-85
2021/12/08 03:20:08;;;;;;;;;;;5.90;82.00;;;;;;5054976;28;20316;-86
2021/12/08 03:22:37;;;;;;;;;;;6.00;82.30;;;;;;5054054;28;19921;-86
2021/12/08 03:25:06;;;;;;;;;;;6.00;81.90;;;;;;5053455;28;19923;-86
2021/12/08 03:27:39;;;;;;;;;;;6.00;81.90;;;;;;5053083;28;20253;-86
2021/12/08 03:30:16;;;;;;;;;;;6.10;81.80;;;;;;5039509;28;20424;-86
2021/12/08 03:32:41;;;;;;;;;;;6.10;82.00;;;;;;5052529;28;19980;-86
2021/12/08 03:35:11;;;;;;;;;;;6.10;82.10;;;;;;5052521;28;19967;-85
2021/12/08 03:37:38;;;;;;;;;;;6.00;82.30;;;;;;5051700;28;19924;-85
2021/12/08 03:40:08;;;;;;;;;;;6.10;82.00;;;;;;5054331;28;19913;-85
2021/12/08 03:42:37;;;;;;;;;;;6.10;82.10;;;;;;5037605;28;19920;-86
2021/12/08 03:45:07;;;;;;;;;;;6.10;82.20;;;;;;5069776;28;19912;-85
2021/12/08 03:47:32;;;;;;;;;;;6.00;82.40;;;;;;5053829;28;19919;-85
2021/12/08 03:49:59;;;;;;;;;;;6.20;82.10;;;;;;5053152;28;20041;-85
2021/12/08 03:52:25;;;;;;;;;;;6.20;82.00;;;;;;5067252;28;19913;-86
2021/12/08 03:54:51;;;;;;;;;;;6.30;81.90;;;;;;5072055;28;19998;-87
2021/12/08 03:57:16;;;;;;;;;;;6.30;81.90;;;;;;5074056;28;19900;-85
2021/12/08 03:59:42;;;;;;;;;;;6.20;82.20;;;;;;5071277;28;19924;-86
2021/12/08 04:02:07;;;;;;;;;;;6.30;81.70;;;;;;5055025;28;20332;-84
2021/12/08 04:04:42;;;;;;;;;;;6.30;82.00;;;;;;5047883;28;19921;-86
2021/12/08 04:07:08;;;;;;;;;;;6.20;82.30;;;;;;5031761;28;20332;-84
2021/12/08 04:09:44;;;;;;;;;;;6.30;82.30;;;;;;5044076;28;19928;-84
2021/12/08 04:12:15;;;;;;;;;;;6.30;82.40;;;;;;5046984;28;19913;-84
2021/12/08 04:14:43;;;;;;;;;;;6.10;82.60;;;;;;5053231;28;19920;-86
2021/12/08 04:17:11;;;;;;;;;;;6.20;82.80;;;;;;5054567;28;19978;-84
2021/12/08 04:19:37;;;;;;;;;;;6.20;82.90;;;;;;5053896;28;19913;-85
2021/12/08 04:22:06;;;;;;;;;;;6.20;82.50;;;;;;5052600;28;19920;-85
2021/12/08 04:24:32;;;;;;;;;;;6.10;83.00;;;;;;5051501;28;20004;-85
2021/12/08 04:27:00;;;;;;;;;;;6.10;82.80;;;;;;5049385;28;20493;-86
2021/12/08 04:29:28;;;;;;;;;;;6.20;82.90;;;;;;5054477;28;19913;-85
2021/12/08 04:31:54;;;;;;;;;;;6.40;82.50;;;;;;5053912;28;19935;-85
2021/12/08 04:34:24;;;;;;;;;;;6.40;82.20;;;;;;5058375;28;20361;-85
2021/12/08 04:36:51;;;;;;;;;;;6.40;82.20;;;;;;5052797;28;19967;-85
2021/12/08 04:39:23;;;;;;;;;;;6.40;82.10;;;;;;5055902;28;19916;-84
2021/12/08 04:41:56;;;;;;;;;;;6.50;82.30;;;;;;5052149;28;19913;-84
2021/12/08 04:44:29;;;;;;;;;;;6.40;82.20;;;;;;5052259;28;19920;-86
2021/12/08 04:52:13;;;;;;;;;;;6.30;82.90;;;;;;5054300;28;19972;-84
2021/12/08 05:00:27;;;;;;;;;;;6.10;83.10;;;;;;5039626;28;19924;-85
2021/12/08 05:03:19;;;;;;;;;;;6.00;83.70;;;;;;5037711;28;19978;-86
2021/12/08 05:08:41;;;;;;;;;;;6.10;83.60;;;;;;5054073;28;19916;-85
2021/12/08 05:11:21;;;;;;;;;;;6.00;83.70;;;;;;5052649;28;19935;-85
2021/12/08 05:13:50;;;;;;;;;;;6.10;83.60;;;;;;5044293;28;20316;-85
2021/12/08 05:16:15;;;;;;;;;;;6.00;84.10;;;;;;5054051;28;20322;-86
2021/12/08 05:18:45;;;;;;;;;;;6.00;84.00;;;;;;5059173;28;19917;-86
2021/12/08 05:21:14;;;;;;;;;;;6.00;84.00;;;;;;5058077;28;19939;-85
2021/12/08 05:23:42;;;;;;;;;;;6.10;83.50;;;;;;5054572;28;19913;-86
2021/12/08 05:26:10;;;;;;;;;;;6.10;83.20;;;;;;5060235;28;19909;-86
2021/12/08 05:28:36;;;;;;;;;;;6.00;83.90;;;;;;5059866;28;19913;-86
2021/12/08 05:31:09;;;;;;;;;;;5.90;84.20;;;;;;5061214;28;20377;-86
2021/12/08 05:33:35;;;;;;;;;;;5.90;84.20;;;;;;5071269;28;19917;-86
2021/12/08 05:36:01;;;;;;;;;;;5.90;84.30;;;;;;5062220;28;20482;-86
2021/12/08 05:38:26;;;;;;;;;;;5.80;84.50;;;;;;5057985;28;19943;-86
2021/12/08 05:40:55;;;;;;;;;;;5.80;84.20;;;;;;5056707;28;20256;-86
2021/12/08 05:43:21;;;;;;;;;;;5.80;84.50;;;;;;5056749;28;19913;-85
2021/12/08 05:45:47;;;;;;;;;;;5.80;84.70;;;;;;5040318;28;19913;-85
2021/12/08 05:48:13;;;;;;;;;;;5.90;84.50;;;;;;5050559;28;19928;-84
2021/12/08 05:50:50;;;;;;;;;;;6.00;84.10;;;;;;5057296;28;19912;-85
2021/12/08 05:53:16;;;;;;;;;;;6.00;83.90;;;;;;5049101;28;19986;-84
2021/12/08 05:55:42;;;;;;;;;;;6.00;84.50;;;;;;5051723;28;20304;-85
2021/12/08 05:58:08;;;;;;;;;;;6.00;83.70;;;;;;5049701;28;19921;-84
2021/12/08 06:00:42;;;;;;;;;;;6.00;84.00;;;;;;5057025;28;19912;-85
2021/12/08 06:03:10;;;;;;;;;;;6.00;84.20;;;;;;5043890;28;20698;-84
2021/12/08 06:05:35;;;;;;;;;;;6.00;84.10;;;;;;5049534;28;19917;-84
2021/12/08 06:08:01;;;;;;;;;;;6.00;83.80;;;;;;5057750;28;19928;-87
2021/12/08 06:10:32;;;;;;;;;;;6.00;83.90;;;;;;5047676;28;19948;-86
2021/12/08 06:12:58;;;;;;;;;;;6.00;83.40;;;;;;5054984;28;20369;-86
2021/12/08 06:15:23;;;;;;;;;;;5.90;84.20;;;;;;5045002;28;19913;-87
2021/12/08 06:17:49;;;;;;;;;;;5.80;84.10;;;;;;5045099;28;19916;-87
2021/12/08 06:20:15;;;;;;;;;;;5.80;84.30;;;;;;5044876;28;19920;-88
2021/12/08 06:22:42;;;;;;;;;;;5.70;84.60;;;;;;5047823;28;19913;-88
2021/12/08 06:25:09;;;;;;;;;;;5.90;84.40;;;;;;5049837;28;20215;-88
2021/12/08 06:27:34;;;;;;;;;;;6.00;83.60;;;;;;5035668;28;19913;-89
2021/12/08 06:30:00;;;;;;;;;;;5.80;84.30;;;;;;5051259;28;19967;-87
2021/12/08 06:32:25;;;;;;;;;;;5.80;84.30;;;;;;5047169;28;19939;-86
2021/12/08 06:34:53;;;;;;;;;;;5.80;84.10;;;;;;5035366;28;20376;-88
2021/12/08 06:37:24;;;;;;;;;;;5.90;84.00;;;;;;5051161;28;20296;-85
2021/12/08 06:39:55;;;;;;;;;;;5.90;84.00;;;;;;5066480;28;19920;-85
2021/12/08 06:42:22;;;;;;;;;;;5.80;84.30;;;;;;5058220;28;19919;-89
2021/12/08 06:44:51;;;;;;;;;;;5.80;83.90;;;;;;5043962;28;19956;-87
2021/12/08 06:47:19;;;;;;;;;;;5.90;84.00;;;;;;5057734;28;19944;-85
2021/12/08 06:49:46;;;;;;;;;;;5.80;83.90;;;;;;5050851;28;20570;-87
2021/12/08 06:52:14;;;;;;;;;;;5.60;84.50;;;;;;5050107;28;19912;-89
2021/12/08 06:54:45;;;;;;;;;;;5.60;84.60;;;;;;5046010;28;19956;-86
2021/12/08 06:57:23;;;;;;;;;;;5.60;85.00;;;;;;5053825;28;19988;-84
2021/12/08 07:00:34;;;;;;;;;;;5.60;84.70;;;;;;5040534;28;19921;-85
2021/12/08 07:05:28;;;;;;;;;;;5.70;84.70;;;;;;5048011;28;19913;-84
2021/12/08 07:07:55;;;;;;;;;;;5.70;84.60;;;;;;5043939;28;19916;-83
2021/12/08 07:10:43;;;;;;;;;;;5.60;84.60;;;;;;5050463;28;19909;-84
2021/12/08 07:13:12;;;;;;;;;;;5.50;85.20;;;;;;5051693;28;20023;-83
2021/12/08 07:15:45;;;;;;;;;;;5.50;85.10;;;;;;5052884;28;19924;-85
2021/12/08 07:18:12;;;;;;;;;;;5.50;85.10;;;;;;5045970;28;19949;-84
2021/12/08 07:20:45;;;;;;;;;;;5.50;85.10;;;;;;5056906;28;19917;-83
2021/12/08 07:23:18;;;;;;;;;;;5.50;85.40;;;;;;5064415;28;19916;-84
2021/12/08 07:25:45;;;;;;;;;;;5.40;85.40;;;;;;5039106;28;19913;-83
2021/12/08 07:28:12;;;;;;;;;;;5.40;85.70;;;;;;5034608;28;19920;-84
2021/12/08 07:30:48;;;;;;;;;;;5.50;85.50;;;;;;5047997;28;19913;-84
2021/12/08 07:33:13;;;;;;;;;;;5.50;85.60;;;;;;5047573;28;20293;-84
2021/12/08 07:35:42;;;;;;;;;;;5.60;85.30;;;;;;5043987;28;19983;-84
2021/12/08 07:38:08;;;;;;;;;;;5.80;84.90;;;;;;5053206;28;20018;-83
2021/12/08 07:40:54;;;;;;;;;;;5.80;84.60;;;;;;5055865;28;19931;-83
2021/12/08 07:43:23;;;;;;;;;;;5.80;84.50;;;;;;5072842;28;19935;-84
2021/12/08 07:45:51;;;;;;;;;;;5.90;84.30;;;;;;5070662;28;19947;-84
2021/12/08 07:48:20;;;;;;;;;;;6.00;84.20;;;;;;5068715;28;19944;-82
2021/12/08 07:50:49;;;;;;;;;;;6.00;84.10;;;;;;5047706;28;19989;-83
2021/12/08 07:53:16;;;;;;;;;;;6.00;83.90;;;;;;5051225;28;19913;-83
2021/12/08 07:55:44;;;;;;;;;;;5.90;84.10;;;;;;5055977;28;19939;-84
2021/12/08 07:58:11;;;;;;;;;;;6.00;83.90;;;;;;5057520;28;19936;-84
2021/12/08 08:00:46;;;;;;;;;;;5.90;83.90;;;;;;5048744;28;19912;-84
2021/12/08 08:03:14;;;;;;;;;;;6.00;84.00;;;;;;5049919;28;21181;-84
2021/12/08 08:05:41;;;;;;;;;;;6.00;83.50;;;;;;5047569;28;19913;-84
2021/12/08 08:08:07;;;;;;;;;;;5.90;83.70;;;;;;5045031;28;20479;-84
2021/12/08 08:10:38;;;;;;;;;;;5.90;83.80;;;;;;5048326;28;20042;-83
2021/12/08 08:13:07;;;;;;;;;;;5.90;83.90;;;;;;5044393;28;19921;-84
2021/12/08 08:15:36;;;;;;;;;;;5.80;84.10;;;;;;5038595;28;19979;-84
2021/12/08 08:18:06;;;;;;;;;;;5.90;83.80;;;;;;5033746;28;19913;-83
2021/12/08 08:20:35;;;;;;;;;;;6.00;83.50;;;;;;5038820;28;19957;-83
2021/12/08 08:23:01;;;;;;;;;;;5.90;83.60;;;;;;5030755;28;20003;-84
2021/12/08 08:25:29;;;;;;;;;;;5.90;83.70;;;;;;5040642;28;20019;-82
2021/12/08 08:27:54;;;;;;;;;;;5.90;83.80;;;;;;5047749;28;20008;-83
2021/12/08 08:30:22;;;;;;;;;;;5.90;83.50;;;;;;5046813;28;19999;-84
2021/12/08 08:32:49;;;;;;;;;;;5.80;83.80;;;;;;5042754;28;19970;-83
2021/12/08 08:35:18;;;;;;;;;;;5.90;83.60;;;;;;5047094;28;19928;-84
2021/12/08 08:37:44;;;;;;;;;;;5.90;83.60;;;;;;5050010;28;19938;-83
2021/12/08 08:40:14;;;;;;;;;;;5.80;83.50;;;;;;5046136;28;19940;-82
2021/12/08 08:42:41;;;;;;;;;;;5.90;83.20;;;;;;5042907;28;20260;-79
2021/12/08 08:45:10;;;;;;;;;;;5.90;83.50;;;;;;5046602;28;19921;-81
2021/12/08 08:47:39;;;;;;;;;;;6.00;83.40;;;;;;5047977;28;19921;-81
2021/12/08 08:50:06;;;;;;;;;;;6.00;83.40;;;;;;5040004;28;20361;-81
2021/12/08 08:52:43;;;;;;;;;;;5.90;83.60;;;;;;5048534;28;19913;-81
2021/12/08 08:55:13;;;;;;;;;;;5.90;83.70;;;;;;5041533;28;19928;-82
2021/12/08 08:57:40;;;;;;;;;;;5.90;83.80;;;;;;5038613;28;20012;-86
2021/12/08 09:00:05;;;;;;;;;;;6.00;83.50;;;;;;5056078;28;19917;-85
2021/12/08 09:02:37;;;;;;;;;;;5.90;83.60;;;;;;5059582;28;19939;-85
2021/12/08 09:05:06;;;;;;;;;;;6.10;83.00;;;;;;5054511;28;19913;-85
2021/12/08 09:07:34;;;;;;;;;;;6.10;83.10;;;;;;5050912;28;19909;-85
2021/12/08 09:10:03;;;;;;;;;;;6.10;83.20;;;;;;5054055;28;19924;-85
2021/12/08 09:12:38;;;;;;;;;;;6.10;82.60;;;;;;5054804;28;19967;-86
2021/12/08 09:15:13;;;;;;;;;;;6.20;82.20;;;;;;5052940;28;19924;-86
2021/12/08 09:17:42;;;;;;;;;;;6.20;82.70;;;;;;5032570;28;19967;-86
2021/12/08 09:20:22;;;;;;;;;;;6.10;82.70;;;;;;5054049;28;19961;-85
2021/12/08 09:22:55;;;;;;;;;;;6.40;82.10;;;;;;5054414;28;19915;-85
2021/12/08 09:25:25;;;;;;;;;;;6.50;82.20;;;;;;5053847;28;19935;-84
2021/12/08 09:27:53;;;;;;;;;;;6.50;81.70;;;;;;5052728;28;20000;-85
2021/12/08 09:30:32;;;;;;;;;;;6.50;82.00;;;;;;5056029;28;19949;-85
2021/12/08 09:33:01;;;;;;;;;;;6.60;81.20;;;;;;5054988;28;20539;-85
2021/12/08 09:35:36;;;;;;;;;;;6.60;81.40;;;;;;5055816;28;19916;-85
2021/12/08 09:38:08;;;;;;;;;;;6.70;80.60;;;;;;5054247;28;19917;-85
2021/12/08 09:40:37;;;;;;;;;;;6.60;81.00;;;;;;5055535;28;19952;-85
2021/12/08 09:43:07;;;;;;;;;;;6.70;80.80;;;;;;5056677;28;20051;-85
2021/12/08 09:45:34;;;;;;;;;;;6.60;81.00;;;;;;5053167;28;19908;-85
2021/12/08 09:48:01;;;;;;;;;;;6.60;80.60;;;;;;5055883;28;19912;-85
2021/12/08 09:50:27;;;;;;;;;;;6.60;80.60;;;;;;5054602;28;19915;-84
2021/12/08 09:52:52;;;;;;;;;;;6.60;80.50;;;;;;5045353;28;19913;-85
2021/12/08 09:55:18;;;;;;;;;;;6.50;80.70;;;;;;5052461;28;19913;-85
2021/12/08 09:57:44;;;;;;;;;;;6.50;80.90;;;;;;5050970;28;19932;-83
2021/12/08 10:00:12;;;;;;;;;;;6.60;81.20;;;;;;5047569;28;19967;-82
2021/12/08 10:02:38;;;;;;;;;;;6.70;80.40;;;;;;5054239;28;20466;-81
2021/12/08 10:05:09;;;;;;;;;;;6.80;80.20;;;;;;5067819;28;20011;-85
2021/12/08 10:07:34;;;;;;;;;;;6.80;80.20;;;;;;5060586;28;19987;-84
2021/12/08 10:10:00;;;;;;;;;;;6.90;79.70;;;;;;5061309;28;20074;-84
2021/12/08 10:12:26;;;;;;;;;;;7.00;79.70;;;;;;5063056;28;19953;-85
2021/12/08 10:14:51;;;;;;;;;;;6.90;80.00;;;;;;5041402;28;19909;-85
2021/12/08 10:17:19;;;;;;;;;;;7.10;79.90;;;;;;5051704;28;19923;-85
2021/12/08 10:19:46;;;;;;;;;;;7.20;78.60;;;;;;5058199;28;19912;-85
2021/12/08 10:22:22;;;;;;;;;;;7.30;78.60;;;;;;5081152;28;19920;-85
2021/12/08 10:25:07;;;;;;;;;;;7.20;78.60;;;;;;5053446;28;19913;-84
2021/12/08 10:27:52;;;;;;;;;;;7.20;77.90;;;;;;5054860;28;19920;-84
2021/12/08 10:30:22;;;;;;;;;;;7.40;78.50;;;;;;5059424;28;20002;-84
2021/12/08 10:32:49;;;;;;;;;;;7.30;78.50;;;;;;5065932;28;20302;-85
2021/12/08 10:35:39;;;;;;;;;;;7.10;78.70;;;;;;5050063;28;19968;-84
2021/12/08 10:38:04;;;;;;;;;;;7.10;78.70;;;;;;5064026;28;19963;-85
2021/12/08 10:40:30;;;;;;;;;;;7.10;78.20;;;;;;5053769;28;19909;-84
2021/12/08 10:42:55;;;;;;;;;;;7.20;78.00;;;;;;5051825;28;19909;-83
2021/12/08 10:45:26;;;;;;;;;;;7.30;78.00;;;;;;5047218;28;19972;-85
2021/12/08 10:47:54;;;;;;;;;;;7.30;77.30;;;;;;5053266;28;19934;-85
2021/12/08 10:55:53;;;;;;;;;;;7.30;77.80;;;;;;5044728;28;19963;-84
2021/12/08 10:58:23;;;;;;;;;;;7.30;77.20;;;;;;5054684;28;19970;-85
2021/12/08 11:00:49;;;;;;;;;;;7.30;77.40;;;;;;5051756;28;20349;-84
2021/12/08 11:03:16;;;;;;;;;;;7.50;77.00;;;;;;5049204;28;19920;-84
2021/12/08 11:05:45;;;;;;;;;;;7.40;76.90;;;;;;5051342;28;19912;-84
2021/12/08 11:08:18;;;;;;;;;;;7.40;77.30;;;;;;5063085;28;19913;-84
2021/12/08 11:10:43;;;;;;;;;;;7.50;76.50;;;;;;5062703;28;20443;-84
2021/12/08 11:13:09;;;;;;;;;;;7.60;76.90;;;;;;5060175;28;19913;-83
2021/12/08 11:15:35;;;;;;;;;;;7.60;76.90;;;;;;5056208;28;19917;-85
2021/12/08 11:18:21;;;;;;;;;;;7.60;76.40;;;;;;5052780;28;19975;-84
2021/12/08 11:20:49;;;;;;;;;;;7.60;76.50;;;;;;5053461;28;19982;-85
2021/12/08 11:23:17;;;;;;;;;;;7.50;76.70;;;;;;5059375;28;19913;-85
2021/12/08 11:25:45;;;;;;;;;;;7.50;76.50;;;;;;5061682;28;19917;-86
2021/12/08 11:28:18;;;;;;;;;;;7.60;76.30;;;;;;5059804;28;19920;-85
2021/12/08 11:30:44;;;;;;;;;;;7.50;76.40;;;;;;5062720;28;19912;-85
2021/12/08 11:33:18;;;;;;;;;;;7.50;76.80;;;;;;5070808;28;19984;-84
2021/12/08 11:35:45;;;;;;;;;;;7.60;76.80;;;;;;5077497;28;19980;-84
2021/12/08 11:38:10;;;;;;;;;;;7.60;77.10;;;;;;5072296;28;20298;-86
2021/12/08 11:40:36;;;;;;;;;;;7.60;76.80;;;;;;5045658;28;19958;-85
2021/12/08 11:43:02;;;;;;;;;;;7.50;77.00;;;;;;5074464;28;19939;-83
2021/12/08 11:45:35;;;;;;;;;;;7.60;76.60;;;;;;5065977;28;19948;-85
2021/12/08 11:48:01;;;;;;;;;;;7.60;76.80;;;;;;5068550;28;19963;-85
2021/12/08 11:50:26;;;;;;;;;;;7.60;77.00;;;;;;5067297;28;20408;-84
2021/12/08 11:52:53;;;;;;;;;;;7.60;76.10;;;;;;5071798;28;19912;-85
2021/12/08 11:55:20;;;;;;;;;;;7.60;76.90;;;;;;5060042;28;19932;-83
2021/12/08 11:57:52;;;;;;;;;;;7.70;76.40;;;;;;5065915;28;19972;-84
2021/12/08 12:00:22;;;;;;;;;;;7.60;76.70;;;;;;5056609;28;19913;-84
2021/12/08 12:02:56;;;;;;;;;;;7.50;76.20;;;;;;5062747;28;19920;-85
2021/12/08 12:05:24;;;;;;;;;;;7.50;76.30;;;;;;5055209;28;19963;-85
2021/12/08 12:07:50;;;;;;;;;;;7.50;76.60;;;;;;5064552;28;19919;-84
2021/12/08 12:10:17;;;;;;;;;;;7.60;75.70;;;;;;5053168;28;20280;-85
2021/12/08 12:12:43;;;;;;;;;;;7.50;76.30;;;;;;5049367;28;19913;-83
2021/12/08 12:15:10;;;;;;;;;;;7.50;75.80;;;;;;5048683;28;19959;-83
2021/12/08 12:17:35;;;;;;;;;;;7.40;75.20;;;;;;5055778;28;19917;-84
2021/12/08 12:20:04;;;;;;;;;;;7.30;75.30;;;;;;5054100;28;19912;-85
2021/12/08 12:22:48;;;;;;;;;;;7.30;75.10;;;;;;5053448;28;19931;-84
2021/12/08 12:25:24;;;;;;;;;;;7.30;75.30;;;;;;5066537;28;19923;-85
2021/12/08 12:28:07;;;;;;;;;;;7.30;74.50;;;;;;5040228;28;19913;-85
2021/12/08 12:30:48;;;;;;;;;;;7.20;75.20;;;;;;5053942;28;19931;-85
2021/12/08 12:33:22;;;;;;;;;;;7.10;75.40;;;;;;5061325;28;19916;-83
2021/12/08 12:35:49;;;;;;;;;;;7.10;75.50;;;;;;5046962;28;19966;-84
2021/12/08 12:38:14;;;;;;;;;;;7.10;75.50;;;;;;5059690;28;20257;-85
2021/12/08 12:40:43;;;;;;;;;;;7.10;75.10;;;;;;5063766;28;19913;-85
2021/12/08 12:43:09;;;;;;;;;;;7.20;75.10;;;;;;5046661;28;20055;-85
2021/12/08 12:45:37;;;;;;;;;;;7.20;75.40;;;;;;5047189;28;20004;-85
2021/12/08 12:48:10;;;;;;;;;;;7.20;75.20;;;;;;5046740;28;20284;-84
2021/12/08 12:50:55;;;;;;;;;;;7.40;74.40;;;;;;5047972;28;19985;-85
2021/12/08 12:53:31;;;;;;;;;;;7.50;74.30;;;;;;5063487;28;19935;-83
2021/12/08 12:55:56;;;;;;;;;;;7.30;74.70;;;;;;5056046;28;19959;-82
2021/12/08 12:58:22;;;;;;;;;;;7.30;74.90;;;;;;5049251;28;19917;-81
2021/12/08 13:01:02;;;;;;;;;;;7.30;74.60;;;;;;5055105;28;20536;-82
2021/12/08 13:03:34;;;;;;;;;;;7.30;74.10;;;;;;5037807;28;20396;-81
2021/12/08 13:06:00;;;;;;;;;;;7.30;74.40;;;;;;5057209;28;19971;-81
2021/12/08 13:08:31;;;;;;;;;;;7.40;74.40;;;;;;5056102;28;19909;-83
2021/12/08 13:10:59;;;;;;;;;;;7.30;74.70;;;;;;5051901;28;20396;-81
2021/12/08 13:13:24;;;;;;;;;;;7.40;74.10;;;;;;5048265;28;19920;-80
2021/12/08 13:15:50;;;;;;;;;;;7.30;73.80;;;;;;5043688;28;20180;-83
2021/12/08 13:18:17;;;;;;;;;;;7.30;73.90;;;;;;5046544;28;19916;-85
2021/12/08 13:20:44;;;;;;;;;;;7.30;73.90;;;;;;5047181;28;20250;-85
2021/12/08 13:23:14;;;;;;;;;;;7.30;73.60;;;;;;5049280;28;19940;-86
2021/12/08 13:25:55;;;;;;;;;;;7.20;73.20;;;;;;5048527;28;19913;-85
2021/12/08 13:31:13;;;;;;;;;;;7.50;73.30;;;;;;5048221;28;19917;-85
2021/12/08 13:33:43;;;;;;;;;;;7.50;73.30;;;;;;5058181;28;19943;-85
2021/12/08 13:36:21;;;;;;;;;;;7.50;72.90;;;;;;5048029;28;20333;-83
2021/12/08 13:39:07;;;;;;;;;;;7.50;73.10;;;;;;5053795;28;19916;-81
2021/12/08 13:41:33;;;;;;;;;;;7.50;73.10;;;;;;5049969;28;19940;-82
2021/12/08 13:44:02;;;;;;;;;;;7.50;73.20;;;;;;5045667;28;19919;-82
2021/12/08 13:46:37;;;;;;;;;;;7.50;72.80;;;;;;5056876;28;19967;-81
2021/12/08 13:49:24;;;;;;;;;;;7.20;73.40;;;;;;5049250;28;20344;-82
2021/12/08 13:51:58;;;;;;;;;;;7.20;73.90;;;;;;5051267;28;19920;-81
2021/12/08 13:54:25;;;;;;;;;;;7.20;73.70;;;;;;5054724;28;19913;-82
2021/12/08 13:56:51;;;;;;;;;;;7.00;73.20;;;;;;5046504;28;20035;-80
2021/12/08 13:59:36;;;;;;;;;;;7.10;73.60;;;;;;5052964;28;20154;-82
2021/12/08 14:02:17;;;;;;;;;;;7.10;73.50;;;;;;5061401;28;20019;-82
2021/12/08 14:04:43;;;;;;;;;;;7.10;73.90;;;;;;5047999;28;20418;-79
2021/12/08 14:07:15;;;;;;;;;;;7.10;73.10;;;;;;5055337;28;20338;-80
2021/12/08 14:09:40;;;;;;;;;;;7.00;74.10;;;;;;5054195;28;19913;-80
2021/12/08 14:12:06;;;;;;;;;;;7.00;73.30;;;;;;5047124;28;20008;-81
2021/12/08 14:14:31;;;;;;;;;;;7.10;73.70;;;;;;5056103;28;20331;-82
2021/12/08 14:16:57;;;;;;;;;;;7.00;73.80;;;;;;5056551;28;19917;-81
2021/12/08 14:19:22;;;;;;;;;;;6.90;73.40;;;;;;5056336;28;20359;-81
2021/12/08 14:21:48;;;;;;;;;;;7.00;73.10;;;;;;5053014;28;20289;-83
2021/12/08 14:24:13;;;;;;;;;;;6.90;73.90;;;;;;5050843;28;19982;-82
2021/12/08 14:26:39;;;;;;;;;;;6.90;74.00;;;;;;5049985;28;19920;-82
2021/12/08 14:29:10;;;;;;;;;;;7.00;73.30;;;;;;5046678;28;20009;-81
2021/12/08 14:31:39;;;;;;;;;;;7.00;73.50;;;;;;5056681;28;19920;-81
2021/12/08 14:34:04;;;;;;;;;;;6.90;73.80;;;;;;5050709;28;19929;-81
2021/12/08 14:36:33;;;;;;;;;;;6.90;73.60;;;;;;5052242;28;20284;-82
2021/12/08 14:38:59;;;;;;;;;;;6.80;74.10;;;;;;5053229;28;19913;-83
2021/12/08 14:41:27;;;;;;;;;;;6.90;73.90;;;;;;5052512;28;19916;-83
2021/12/08 14:44:00;;;;;;;;;;;6.80;74.30;;;;;;5053411;28;19984;-82
2021/12/08 14:46:26;;;;;;;;;;;6.70;75.20;;;;;;5055257;28;19915;-80
2021/12/08 14:49:00;;;;;;;;;;;6.60;74.80;;;;;;5051155;28;20008;-86
2021/12/08 14:51:26;;;;;;;;;;;6.60;75.20;;;;;;5055796;28;19913;-86
2021/12/08 14:53:52;;;;;;;;;;;6.60;75.40;;;;;;5057111;28;19920;-82
2021/12/08 14:56:17;;;;;;;;;;;6.60;75.30;;;;;;5056183;28;20054;-83
2021/12/08 14:58:43;;;;;;;;;;;6.60;74.90;;;;;;5055851;28;19917;-86
2021/12/08 15:01:13;;;;;;;;;;;6.60;74.90;;;;;;5051224;28;19924;-86
2021/12/08 15:03:40;;;;;;;;;;;6.60;74.70;;;;;;5048500;28;19923;-87
2021/12/08 15:06:06;;;;;;;;;;;6.50;75.10;;;;;;5058705;28;20152;-86
2021/12/08 15:08:37;;;;;;;;;;;6.40;75.30;;;;;;5047378;28;19920;-87
2021/12/08 15:11:02;;;;;;;;;;;6.30;75.60;;;;;;5062227;28;19949;-85
2021/12/08 15:13:30;;;;;;;;;;;6.30;75.80;;;;;;5069170;28;19920;-85
2021/12/08 15:15:56;;;;;;;;;;;6.20;76.40;;;;;;5050350;28;19949;-86
2021/12/08 15:18:24;;;;;;;;;;;6.20;76.20;;;;;;5053916;28;19928;-86
2021/12/08 15:20:50;;;;;;;;;;;6.10;76.60;;;;;;5060051;28;19916;-85
2021/12/08 15:23:24;;;;;;;;;;;6.00;77.10;;;;;;5056917;28;20023;-86
2021/12/08 15:25:52;;;;;;;;;;;6.00;77.70;;;;;;5056173;28;19943;-86
2021/12/08 15:28:23;;;;;;;;;;;6.00;77.90;;;;;;5053718;28;19941;-86